EW6394 Weather Reports


Display with metric or nautical units.
time (UTC)temp
F
wind
direction
speed
MPH
gust
MPH
rain 1hr
in
rain 24hr
in
rain mn
in
humidity
%
barometer
mb
20260506114526 46 161 0.0 2.0 0.00 0.00 0.00 95 1018.6
20260506113030 46 162 1.0 3.0 0.00 0.00 0.00 95 1018.7
20260506111522 46 160 0.0 0.0 0.00 0.00 0.00 95 1018.7
20260506110021 46 161 0.0 0.0 0.00 0.00 0.00 94 1018.8
20260506104525 47 161 0.0 2.0 0.00 0.00 0.00 94 1018.7
20260506103026 47 158 0.0 0.0 0.00 0.00 0.00 94 1018.7
20260506101517 47 160 0.0 0.0 0.00 0.00 0.00 94 1018.7
20260506100017 47 160 0.0 0.0 0.00 0.00 0.00 94 1018.6
20260506094519 47 162 0.0 1.0 0.00 0.00 0.00 93 1018.6
20260506093016 47 157 0.0 1.0 0.00 0.00 0.00 94 1018.5
20260506091517 47 161 0.0 2.0 0.00 0.00 0.00 93 1018.4
20260506090018 47 161 0.0 2.0 0.00 0.00 0.00 93 1018.5
20260506084509 47 160 0.0 2.0 0.00 0.00 0.00 91 1018.4
20260506083006 48 149 0.0 0.0 0.00 0.00 0.00 91 1018.5
20260506081505 48 149 0.0 0.0 0.00 0.00 0.00 91 1018.5
20260506073103 49 149 0.0 0.0 0.00 0.00 0.00 90 1018.4
20260506071558 50 149 0.0 0.0 0.00 0.00 0.00 89 1018.2
20260506061600 51 149 0.0 0.0 0.00 0.00 0.00 84 1017.6
20260506050104 51 176 0.0 1.0 0.00 0.00 0.00 84 1017.1
20260506044550 51 176 0.0 0.0 0.00 0.00 0.00 84 1017.0
20260506043044 52 176 0.0 0.0 0.00 0.00 0.00 84 1016.8
20260506041542 52 176 0.0 0.0 0.00 0.00 0.00 82 1016.6
20260506040043 53 176 0.0 0.0 0.00 0.00 0.00 81 1016.4
20260506034540 53 147 1.0 4.0 0.00 0.00 0.00 79 1016.1
20260506033038 53 183 4.0 10.0 0.00 0.00 0.00 83 1015.8
20260506031544 53 199 5.0 10.0 0.00 0.00 0.00 84 1015.5
20260506030032 53 226 4.0 8.0 0.00 0.00 0.00 85 1015.2
20260506024541 54 201 5.0 9.0 0.00 0.00 0.00 83 1015.1
20260506023031 55 196 4.0 9.0 0.00 0.00 0.00 81 1015.0
20260506021532 55 149 7.0 13.0 0.00 0.00 0.00 80 1014.9
20260506020029 56 165 6.0 12.0 0.00 0.00 0.00 79 1014.8
20260506014531 56 185 7.0 12.0 0.00 0.00 0.00 79 1014.9
20260506013053 57 227 6.0 10.0 0.00 0.00 0.00 77 1014.8
20260506011534 57 167 4.0 12.0 0.00 0.00 0.00 76 1014.9
20260506010028 57 174 4.0 10.0 0.00 0.00 0.00 75 1014.9
20260506004527 57 159 7.0 13.0 0.00 0.00 0.00 73 1014.8
20260506003027 58 190 6.0 12.0 0.00 0.00 0.00 72 1014.7
20260506001526 59 207 5.0 9.0 0.00 0.00 0.00 71 1014.7
20260506000030 59 202 4.0 12.0 0.00 0.00 0.00 72 1014.7
20260505234526 61 203 5.0 11.0 0.00 0.00 0.00 70 1014.6
20260505233025 61 150 3.0 9.0 0.00 0.00 0.00 71 1014.6
20260505231525 62 165 3.0 9.0 0.00 0.00 0.00 68 1014.7
20260505230029 62 163 5.0 11.0 0.00 0.00 0.00 68 1014.7
20260505224523 61 201 3.0 10.0 0.00 0.00 0.00 69 1014.9
20260505223028 62 196 3.0 10.0 0.00 0.00 0.00 66 1014.9
20260505221525 62 188 3.0 10.0 0.00 0.00 0.00 67 1015.0
20260505220022 62 138 4.0 8.0 0.00 0.00 0.00 67 1015.2
20260505214524 62 149 5.0 12.0 0.00 0.00 0.00 67 1015.4
20260505213019 61 132 3.0 14.0 0.00 0.00 0.00 71 1015.5
20260505211515 60 203 4.0 10.0 0.00 0.00 0.00 69 1015.6
20260505210015 60 223 4.0 10.0 0.00 0.00 0.00 72 1015.7
20260505204516 59 184 4.0 10.0 0.00 0.00 0.00 72 1015.7
20260505203014 60 170 3.0 11.0 0.00 0.00 0.00 71 1015.6
20260505201514 60 211 3.0 10.0 0.00 0.00 0.00 74 1015.7
20260505200011 59 227 4.0 9.0 0.00 0.00 0.00 75 1015.6
20260505194509 59 201 4.0 10.0 0.00 0.00 0.00 74 1015.7
20260505191504 58 189 3.0 7.0 0.00 0.00 0.00 74 1015.7
20260505190004 59 128 3.0 7.0 0.00 0.00 0.00 73 1015.7
20260505184502 58 253 2.0 7.0 0.00 0.00 0.00 74 1015.6
20260505183107 59 194 2.0 7.0 0.00 0.00 0.00 71 1015.5
20260505181559 59 201 1.0 4.0 0.00 0.00 0.00 70 1015.5
20260505174601 58 144 0.0 3.0 0.00 0.00 0.00 73 1015.3
20260505173052 57 182 0.0 4.0 0.00 0.00 0.00 73 1015.3
20260505171551 56 226 0.0 5.0 0.00 0.00 0.00 76 1015.4
20260505170047 54 9 1.0 4.0 0.00 0.00 0.00 78 1015.5
20260505164544 54 145 0.0 4.0 0.00 0.00 0.00 79 1015.4
20260505163041 53 42 1.0 5.0 0.00 0.00 0.00 82 1015.4
20260505161537 51 48 0.0 3.0 0.00 0.00 0.00 84 1015.3
20260505153035 50 33 1.0 3.0 0.00 0.00 0.00 87 1015.2
20260505151529 50 114 0.0 0.0 0.00 0.00 0.00 90 1015.0
20260505124521 46 163 0.0 0.0 0.00 0.00 0.00 92 1014.5
20260505123012 47 163 0.0 0.0 0.00 0.00 0.00 92 1014.4
20260505121512 47 163 0.0 0.0 0.00 0.00 0.00 92 1014.2
20260505120024 48 163 0.0 0.0 0.00 0.00 0.00 91 1014.2